createdAt,value
2023-03-18T00:02:40.734Z,10.50
2023-03-18T00:07:42.440Z,10.60
2023-03-18T00:12:45.014Z,10.70
2023-03-18T00:17:48.472Z,10.60
2023-03-18T00:22:50.979Z,10.60
2023-03-18T00:27:52.903Z,10.60
2023-03-18T00:32:56.175Z,10.60
2023-03-18T00:37:58.756Z,10.60
2023-03-18T00:43:08.075Z,10.60
2023-03-18T00:48:11.086Z,10.60
2023-03-18T00:53:14.253Z,10.60
2023-03-18T00:58:15.863Z,10.50
2023-03-18T01:03:17.674Z,10.60
2023-03-18T01:08:19.808Z,10.70
2023-03-18T01:13:21.486Z,10.60
2023-03-18T01:18:23.558Z,10.70
2023-03-18T01:23:25.254Z,10.60
2023-03-18T01:28:27.450Z,10.60
2023-03-18T01:33:29.892Z,10.40
2023-03-18T01:38:32.058Z,10.40
2023-03-18T01:43:35.619Z,10.30
2023-03-18T01:48:38.330Z,10.30
2023-03-18T01:53:41.585Z,10.40
2023-03-18T01:58:44.855Z,10.40
2023-03-18T02:03:49.366Z,10.40
2023-03-18T02:08:50.990Z,10.40
2023-03-18T02:13:53.233Z,10.40
2023-03-18T02:18:56.549Z,10.30
2023-03-18T02:24:02.977Z,10.30
2023-03-18T02:29:05.881Z,10.20
2023-03-18T02:34:08.588Z,10.20
2023-03-18T02:39:13.133Z,10.30
2023-03-18T02:44:14.791Z,10.20
2023-03-18T02:49:17.305Z,10.20
2023-03-18T02:54:26.624Z,10.20
2023-03-18T02:59:28.738Z,10.20
2023-03-18T03:04:30.553Z,10.10
2023-03-18T03:09:32.098Z,10.10
2023-03-18T03:14:33.639Z,9.90
2023-03-18T03:19:35.228Z,9.70
2023-03-18T03:24:36.811Z,9.70
2023-03-18T03:29:38.925Z,9.70
2023-03-18T03:34:41.540Z,9.70
2023-03-18T03:39:43.405Z,9.60
2023-03-18T03:44:45.723Z,9.70
2023-03-18T03:49:47.702Z,9.60
2023-03-18T03:54:50.377Z,9.70
2023-03-18T03:59:51.926Z,9.70
2023-03-18T04:04:53.701Z,9.70
2023-03-18T04:09:55.982Z,9.70
2023-03-18T04:14:57.861Z,9.80
2023-03-18T04:19:59.482Z,9.80
2023-03-18T04:25:01.758Z,9.70
2023-03-18T04:30:04.625Z,9.60
2023-03-18T04:35:06.997Z,9.50
2023-03-18T04:40:09.034Z,9.50
2023-03-18T04:45:11.373Z,9.30
2023-03-18T04:50:13.275Z,9.20
2023-03-18T04:55:16.465Z,9.10
2023-03-18T05:00:22.216Z,9.00
2023-03-18T05:05:23.882Z,9.10
2023-03-18T05:10:25.487Z,8.90
2023-03-18T05:15:27.549Z,8.80
2023-03-18T05:20:29.135Z,8.60
2023-03-18T05:25:31.768Z,8.60
2023-03-18T05:30:34.492Z,8.50
2023-03-18T05:35:36.155Z,8.50
2023-03-18T05:40:37.806Z,8.40
2023-03-18T05:45:40.421Z,8.40
2023-03-18T05:50:42.907Z,8.50
2023-03-18T05:55:44.496Z,8.60
2023-03-18T06:00:46.139Z,8.60
2023-03-18T06:05:49.194Z,8.60
2023-03-18T06:10:50.816Z,8.70
2023-03-18T06:15:59.639Z,8.60
2023-03-18T06:21:01.563Z,8.80
2023-03-18T06:26:03.666Z,8.80
2023-03-18T06:31:05.411Z,8.80
2023-03-18T06:36:07.272Z,8.90
2023-03-18T06:41:08.950Z,9.20
2023-03-18T06:46:10.744Z,9.30
2023-03-18T06:51:12.670Z,9.40
2023-03-18T06:56:16.266Z,9.50
2023-03-18T07:01:17.920Z,9.70
2023-03-18T07:06:19.588Z,9.90
2023-03-18T07:11:22.008Z,10.20
2023-03-18T07:16:23.764Z,10.40
2023-03-18T07:21:25.770Z,10.60
2023-03-18T07:26:27.788Z,10.80
2023-03-18T07:31:30.494Z,11.10
2023-03-18T07:36:32.174Z,11.30
2023-03-18T07:41:36.052Z,11.40
2023-03-18T07:46:39.514Z,11.70
2023-03-18T07:51:41.176Z,11.80
2023-03-18T07:56:42.756Z,11.80
2023-03-18T08:01:44.462Z,12.00
2023-03-18T08:06:46.165Z,12.20
2023-03-18T08:11:47.759Z,12.70
2023-03-18T08:16:49.676Z,13.30
2023-03-18T08:21:51.326Z,13.50
2023-03-18T08:26:52.976Z,13.70
2023-03-18T08:31:54.579Z,14.10
2023-03-18T08:36:56.427Z,14.20
2023-03-18T08:41:59.586Z,14.40
2023-03-18T08:47:01.413Z,14.30
2023-03-18T08:52:03.341Z,14.30
2023-03-18T08:57:05.030Z,14.90
2023-03-18T09:02:07.057Z,15.30
2023-03-18T09:07:09.024Z,15.10
2023-03-18T09:12:12.488Z,15.40
2023-03-18T09:17:14.682Z,15.60
2023-03-18T09:22:16.725Z,15.60
2023-03-18T09:27:18.354Z,15.50
2023-03-18T09:32:20.001Z,15.50
2023-03-18T09:37:22.020Z,15.70
2023-03-18T09:42:41.621Z,15.80
2023-03-18T09:47:46.451Z,16.10
2023-03-18T09:52:48.098Z,16.10
2023-03-18T09:57:51.466Z,16.20
2023-03-18T10:02:53.212Z,16.30
2023-03-18T10:07:56.966Z,16.30
2023-03-18T10:13:19.331Z,16.40
2023-03-18T10:18:24.933Z,16.30
2023-03-18T10:23:29.646Z,16.60
2023-03-18T10:28:50.183Z,16.60
2023-03-18T10:33:54.827Z,16.70
2023-03-18T10:38:57.389Z,16.60
2023-03-18T10:44:01.887Z,16.90
2023-03-18T10:49:07.979Z,17.00
2023-03-18T10:54:20.115Z,17.20
2023-03-18T10:59:22.800Z,17.10
2023-03-18T11:04:24.450Z,17.50
2023-03-18T11:09:36.509Z,17.50
2023-03-18T11:14:38.253Z,17.40
2023-03-18T11:19:46.756Z,17.40
2023-03-18T11:25:06.952Z,17.10
2023-03-18T11:30:32.711Z,17.10
2023-03-18T11:35:44.799Z,17.10
2023-03-18T11:40:46.719Z,17.10
2023-03-18T11:45:56.284Z,17.20
2023-03-18T11:50:57.861Z,17.40
2023-03-18T11:56:17.874Z,17.40
2023-03-18T12:01:23.940Z,17.20
2023-03-18T12:06:28.608Z,17.30
2023-03-18T12:11:53.379Z,17.30
2023-03-18T12:17:18.494Z,17.50
2023-03-18T12:22:23.119Z,17.70
2023-03-18T12:27:37.228Z,17.50
2023-03-18T12:32:38.862Z,17.70
2023-03-18T12:37:40.706Z,17.70
2023-03-18T12:42:42.435Z,17.70
2023-03-18T12:48:03.257Z,17.80
2023-03-18T12:53:10.978Z,17.70
2023-03-18T12:58:16.167Z,17.60
2023-03-18T13:03:40.975Z,17.50
2023-03-18T13:08:52.286Z,17.20
2023-03-18T13:13:55.776Z,17.30
2023-03-18T13:18:57.702Z,17.30
2023-03-18T13:24:00.089Z,17.20
2023-03-18T13:29:01.665Z,17.10
2023-03-18T13:34:26.383Z,17.00
2023-03-18T13:39:46.775Z,16.80
2023-03-18T13:44:52.653Z,16.90
2023-03-18T13:50:02.139Z,16.90
2023-03-18T13:55:07.289Z,16.90
2023-03-18T14:00:33.033Z,16.80
2023-03-18T14:05:36.936Z,16.70
2023-03-18T14:10:38.509Z,16.70
2023-03-18T14:15:44.493Z,16.80
2023-03-18T14:20:46.395Z,16.80
2023-03-18T14:25:54.323Z,16.70
2023-03-18T14:31:12.760Z,16.70
2023-03-18T14:36:14.636Z,16.70
2023-03-18T14:41:22.441Z,16.90
2023-03-18T14:46:27.131Z,16.90
2023-03-18T14:51:31.622Z,16.90
2023-03-18T14:56:38.799Z,17.00
2023-03-18T15:01:41.697Z,17.10
2023-03-18T15:06:43.651Z,17.30
2023-03-18T15:11:46.655Z,17.50
2023-03-18T15:16:54.761Z,17.30
2023-03-18T15:21:58.037Z,17.20
2023-03-18T15:27:04.220Z,16.90
2023-03-18T15:32:14.878Z,16.80
2023-03-18T15:37:25.920Z,16.80
2023-03-18T15:42:28.228Z,16.80
2023-03-18T15:47:32.908Z,16.70
2023-03-18T15:52:39.081Z,16.70
2023-03-18T15:57:43.193Z,16.70
2023-03-18T16:02:44.823Z,16.50
2023-03-18T16:07:47.048Z,16.40
2023-03-18T16:12:53.435Z,16.40
2023-03-18T16:17:55.599Z,16.30
2023-03-18T16:22:57.775Z,16.30
2023-03-18T16:28:00.092Z,16.30
2023-03-18T16:33:01.772Z,16.20
2023-03-18T16:38:03.500Z,16.20
2023-03-18T16:43:09.877Z,16.30
2023-03-18T16:48:13.692Z,16.20
2023-03-18T16:53:18.238Z,16.30
2023-03-18T16:58:25.241Z,16.20
2023-03-18T17:03:27.274Z,16.20
2023-03-18T17:08:28.872Z,16.10
2023-03-18T17:13:32.865Z,16.10
2023-03-18T17:18:34.580Z,16.00
2023-03-18T17:23:36.228Z,15.90
2023-03-18T17:28:40.517Z,15.80
2023-03-18T17:33:42.405Z,15.60
2023-03-18T17:38:44.039Z,15.40
2023-03-18T17:43:45.724Z,15.20
2023-03-18T17:48:47.388Z,15.00
2023-03-18T17:53:51.281Z,14.90
2023-03-18T17:58:53.149Z,14.90
2023-03-18T18:03:55.665Z,14.80
2023-03-18T18:09:00.212Z,14.70
2023-03-18T18:14:23.556Z,14.40
2023-03-18T18:19:25.454Z,14.20
2023-03-18T18:24:28.776Z,14.10
2023-03-18T18:29:30.909Z,13.90
2023-03-18T18:34:33.493Z,13.70
2023-03-18T18:39:35.099Z,13.60
2023-03-18T18:44:36.711Z,13.50
2023-03-18T18:49:38.549Z,13.40
2023-03-18T18:54:40.515Z,13.20
2023-03-18T18:59:42.490Z,13.30
2023-03-18T19:04:44.786Z,13.10
2023-03-18T19:09:46.772Z,13.10
2023-03-18T19:14:48.697Z,13.00
2023-03-18T19:19:50.730Z,13.30
2023-03-18T19:24:52.588Z,13.30
2023-03-18T19:29:55.673Z,13.30
2023-03-18T19:34:57.259Z,13.10
2023-03-18T19:39:59.809Z,13.10
2023-03-18T19:45:01.503Z,13.00
2023-03-18T19:50:04.215Z,13.00
2023-03-18T19:55:08.574Z,13.00
2023-03-18T20:00:22.459Z,13.00
2023-03-18T20:05:25.790Z,13.00
2023-03-18T20:10:27.365Z,12.90
2023-03-18T20:15:29.498Z,12.90
2023-03-18T20:20:32.037Z,13.00
2023-03-18T20:25:40.373Z,12.90
2023-03-18T20:30:42.081Z,12.80
2023-03-18T20:35:44.569Z,12.80
2023-03-18T20:40:47.671Z,12.90
2023-03-18T20:45:51.465Z,12.90
2023-03-18T20:50:54.058Z,12.80
2023-03-18T20:55:56.037Z,12.70
2023-03-18T21:00:57.921Z,12.60
2023-03-18T21:06:00.515Z,12.70
2023-03-18T21:11:02.918Z,12.70
2023-03-18T21:16:11.607Z,12.60
2023-03-18T21:21:21.269Z,12.50
2023-03-18T21:26:23.374Z,12.30
2023-03-18T21:31:26.801Z,12.20
2023-03-18T21:36:28.481Z,12.20
2023-03-18T21:41:30.792Z,12.10
2023-03-18T21:46:32.398Z,12.00
2023-03-18T21:51:40.175Z,12.00
2023-03-18T21:56:42.048Z,12.00
2023-03-18T22:01:43.784Z,11.90
2023-03-18T22:06:45.550Z,11.90
2023-03-18T22:11:47.418Z,11.90
2023-03-18T22:16:49.099Z,11.80
2023-03-18T22:21:51.063Z,11.80
2023-03-18T22:26:52.678Z,11.70
2023-03-18T22:31:54.284Z,11.70
2023-03-18T22:36:55.959Z,11.60
2023-03-18T22:41:57.599Z,11.50
2023-03-18T22:46:59.191Z,11.50
2023-03-18T22:52:00.817Z,11.50
2023-03-18T22:57:02.456Z,11.50
2023-03-18T23:02:04.254Z,11.50
2023-03-18T23:07:06.020Z,11.50
2023-03-18T23:12:08.704Z,11.50
2023-03-18T23:17:14.490Z,11.50
2023-03-18T23:22:18.794Z,11.50
2023-03-18T23:27:21.063Z,11.40
2023-03-18T23:32:23.417Z,11.40
2023-03-18T23:37:25.047Z,11.40
2023-03-18T23:42:26.732Z,11.30
2023-03-18T23:47:28.344Z,11.30
2023-03-18T23:52:29.913Z,11.20
2023-03-18T23:57:31.527Z,11.20
